createdAt,value
2023-05-15T00:00:15.255Z,63823.23
2023-05-15T00:01:17.794Z,63824.98
2023-05-15T00:02:19.773Z,63830.37
2023-05-15T00:03:21.900Z,63815.30
2023-05-15T00:04:23.906Z,63797.73
2023-05-15T00:05:26.241Z,63817.50
2023-05-15T00:06:28.622Z,63807.18
2023-05-15T00:07:30.791Z,63805.63
2023-05-15T00:08:32.629Z,63816.41
2023-05-15T00:09:34.594Z,63817.72
2023-05-15T00:10:37.300Z,63816.41
2023-05-15T00:11:39.350Z,63784.09
2023-05-15T00:12:41.299Z,63815.74
2023-05-15T00:13:43.164Z,63815.74
2023-05-15T00:14:44.996Z,63827.07
2023-05-15T00:15:46.887Z,63819.27
2023-05-15T00:16:48.907Z,63825.96
2023-05-15T00:17:50.790Z,63826.53
2023-05-15T00:18:52.803Z,63823.65
2023-05-15T00:19:54.833Z,63826.95
2023-05-15T00:20:56.772Z,63825.20
2023-05-15T00:21:58.623Z,63810.48
2023-05-15T00:23:00.471Z,63819.27
2023-05-15T00:24:03.186Z,63813.21
2023-05-15T00:25:06.173Z,63814.44
2023-05-15T00:26:08.348Z,63810.36
2023-05-15T00:27:10.229Z,63818.72
2023-05-15T00:28:12.198Z,63817.07
2023-05-15T00:29:14.042Z,63832.34
2023-05-15T00:30:16.235Z,63802.36
2023-05-15T00:31:18.176Z,63807.72
2023-05-15T00:32:20.336Z,63775.54
2023-05-15T00:33:22.195Z,63793.89
2023-05-15T00:34:24.650Z,63793.45
2023-05-15T00:35:26.791Z,63766.62
2023-05-15T00:36:28.994Z,63776.86
2023-05-15T00:37:30.978Z,63778.61
2023-05-15T00:38:32.880Z,63767.71
2023-05-15T00:39:35.617Z,63767.17
2023-05-15T00:40:39.669Z,63770.91
2023-05-15T00:41:44.444Z,63772.58
2023-05-15T00:42:47.466Z,63773.12
2023-05-15T00:43:50.347Z,63779.71
2023-05-15T00:44:53.493Z,63786.73
2023-05-15T00:45:57.114Z,63783.78
2023-05-15T00:47:02.608Z,63775.98
2023-05-15T00:48:06.912Z,63768.27
2023-05-15T00:49:09.925Z,63748.49
2023-05-15T00:50:12.735Z,63758.16
2023-05-15T00:51:15.298Z,63759.91
2023-05-15T00:52:17.573Z,63752.11
2023-05-15T00:53:19.648Z,63757.05
2023-05-15T00:54:21.650Z,63749.60
2023-05-15T00:55:27.975Z,63761.87
2023-05-15T00:56:32.288Z,63757.28
2023-05-15T00:57:35.213Z,63752.90
2023-05-15T00:58:38.143Z,63752.65
2023-05-15T00:59:41.887Z,63743.87
2023-05-15T01:00:46.222Z,63732.04
2023-05-15T01:01:49.720Z,63722.57
2023-05-15T01:02:53.214Z,63734.66
2023-05-15T01:03:55.472Z,63730.26
2023-05-15T01:04:57.864Z,63730.93
2023-05-15T01:06:00.172Z,63737.52
2023-05-15T01:07:02.831Z,63736.41
2023-05-15T01:08:14.486Z,63740.82
2023-05-15T01:09:18.305Z,63749.37
2023-05-15T01:10:21.115Z,63748.39
2023-05-15T01:11:26.419Z,63750.69
2023-05-15T01:12:31.267Z,63750.69
2023-05-15T01:13:33.748Z,63750.27
2023-05-15T01:14:35.615Z,63752.65
2023-05-15T01:15:37.589Z,63752.23
2023-05-15T01:16:39.742Z,63746.74
2023-05-15T01:17:41.976Z,63731.25
2023-05-15T01:18:44.160Z,63729.60
2023-05-15T01:19:50.066Z,63721.04
2023-05-15T01:21:15.703Z,63715.33
2023-05-15T01:22:26.960Z,63683.04
2023-05-15T01:23:58.827Z,63687.57
2023-05-15T01:25:24.843Z,63685.80
2023-05-15T01:26:55.403Z,63689.09
2023-05-15T01:29:43.526Z,63695.24
2023-05-15T01:30:48.037Z,63705.44
2023-05-15T01:31:53.671Z,63702.14
2023-05-15T01:33:20.038Z,63706.55
2023-05-15T01:34:25.209Z,63701.16
2023-05-15T01:35:39.813Z,63696.35
2023-05-15T01:36:51.855Z,63703.79
2023-05-15T01:39:17.196Z,63688.96
2023-05-15T01:40:22.983Z,63686.34
2023-05-15T01:41:34.491Z,63664.40
2023-05-15T01:42:40.185Z,63651.89
2023-05-15T01:43:45.230Z,63666.47
2023-05-15T01:44:51.006Z,63656.27
2023-05-15T01:45:54.717Z,63669.89
2023-05-15T01:47:06.285Z,63682.94
2023-05-15T01:48:10.122Z,63688.11
2023-05-15T01:49:16.627Z,63660.98
2023-05-15T01:50:20.677Z,63656.58
2023-05-15T01:51:25.711Z,63672.39
2023-05-15T01:52:34.140Z,63649.68
2023-05-15T01:53:37.756Z,63660.13
2023-05-15T01:54:41.735Z,63605.81
2023-05-15T01:55:44.904Z,63639.16
2023-05-15T01:56:47.675Z,63628.84
2023-05-15T01:57:51.539Z,63617.75
2023-05-15T01:58:55.350Z,63633.68
2023-05-15T01:59:59.145Z,63653.31
2023-05-15T02:01:01.540Z,63634.76
2023-05-15T02:02:07.852Z,63613.92
2023-05-15T02:03:10.832Z,63620.94
2023-05-15T02:04:13.692Z,63630.70
2023-05-15T02:05:17.206Z,63636.53
2023-05-15T02:06:20.718Z,63647.50
2023-05-15T02:07:24.218Z,63652.44
2023-05-15T02:08:26.820Z,63671.95
2023-05-15T02:09:31.090Z,63670.97
2023-05-15T02:10:34.786Z,63673.60
2023-05-15T02:11:38.856Z,63680.19
2023-05-15T02:12:41.794Z,63674.93
2023-05-15T02:13:44.165Z,63654.08
2023-05-15T02:14:48.613Z,63635.20
2023-05-15T02:15:50.729Z,63640.68
2023-05-15T02:16:52.973Z,63649.58
2023-05-15T02:17:55.145Z,63641.79
2023-05-15T02:18:57.321Z,63627.76
2023-05-15T02:19:59.311Z,63602.27
2023-05-15T02:21:01.321Z,63595.45
2023-05-15T02:22:03.431Z,63623.67
2023-05-15T02:23:05.299Z,63597.02
2023-05-15T02:24:07.143Z,63622.02
2023-05-15T02:25:09.042Z,63610.08
2023-05-15T02:26:24.562Z,63626.21
2023-05-15T02:27:29.659Z,63602.81
2023-05-15T02:28:35.343Z,63631.36
2023-05-15T02:29:57.595Z,63598.98
2023-05-15T02:32:34.911Z,63620.38
2023-05-15T02:33:46.621Z,63624.88
2023-05-15T02:35:09.052Z,63624.46
2023-05-15T02:36:15.021Z,63646.95
2023-05-15T02:37:20.810Z,63657.25
2023-05-15T02:38:26.581Z,63657.15
2023-05-15T02:39:31.415Z,63650.56
2023-05-15T02:40:35.434Z,63625.75
2023-05-15T02:41:40.294Z,63609.11
2023-05-15T02:42:45.231Z,63626.96
2023-05-15T02:43:51.890Z,63609.65
2023-05-15T02:44:55.206Z,63601.85
2023-05-15T02:45:58.920Z,63605.14
2023-05-15T02:47:01.710Z,63590.31
2023-05-15T02:48:05.595Z,63626.42
2023-05-15T02:49:08.884Z,63639.59
2023-05-15T02:50:13.361Z,63645.18
2023-05-15T02:51:15.332Z,63648.60
2023-05-15T02:52:17.535Z,63636.53
2023-05-15T02:53:19.721Z,63647.39
2023-05-15T02:54:22.179Z,63622.59
2023-05-15T02:55:24.350Z,63611.83
2023-05-15T02:56:26.666Z,63606.25
2023-05-15T02:57:29.007Z,63642.45
2023-05-15T02:58:31.806Z,63656.04
2023-05-15T02:59:35.200Z,63662.75
2023-05-15T03:00:37.282Z,63652.08
2023-05-15T03:01:39.295Z,63620.50
2023-05-15T03:02:41.719Z,63612.14
2023-05-15T03:03:43.697Z,63601.41
2023-05-15T03:04:46.077Z,63641.22
2023-05-15T03:05:48.723Z,63649.58
2023-05-15T03:06:51.238Z,63662.95
2023-05-15T03:07:53.279Z,63660.00
2023-05-15T03:08:55.314Z,63665.05
2023-05-15T03:09:57.171Z,63670.87
2023-05-15T03:10:59.261Z,63657.15
2023-05-15T03:12:01.225Z,63679.21
2023-05-15T03:13:03.208Z,63679.52
2023-05-15T03:14:05.122Z,63688.11
2023-05-15T03:15:08.153Z,63658.23
2023-05-15T03:16:10.423Z,63678.54
2023-05-15T03:17:12.486Z,63698.85
2023-05-15T03:18:17.300Z,63700.63
2023-05-15T03:19:19.088Z,63710.93
2023-05-15T03:20:22.028Z,63712.35
2023-05-15T03:21:24.166Z,63665.92
2023-05-15T03:22:26.205Z,63678.12
2023-05-15T03:23:28.172Z,63674.27
2023-05-15T03:24:30.278Z,63676.89
2023-05-15T03:25:32.307Z,63698.41
2023-05-15T03:26:34.277Z,63690.86
2023-05-15T03:27:36.774Z,63698.41
2023-05-15T03:28:39.649Z,63657.81
2023-05-15T03:29:42.663Z,63694.70
2023-05-15T03:30:45.547Z,63692.93
2023-05-15T03:31:47.447Z,63680.31
2023-05-15T03:32:50.324Z,63679.87
2023-05-15T03:33:53.154Z,63706.77
2023-05-15T03:34:55.295Z,63725.44
2023-05-15T03:35:57.360Z,63730.26
2023-05-15T03:36:59.325Z,63727.41
2023-05-15T03:38:01.292Z,63743.01
2023-05-15T03:39:03.231Z,63757.18
2023-05-15T03:40:07.079Z,63760.35
2023-05-15T03:41:10.733Z,63763.33
2023-05-15T03:42:12.669Z,63774.64
2023-05-15T03:43:14.630Z,63765.29
2023-05-15T03:44:16.499Z,63777.94
2023-05-15T03:45:19.208Z,63778.61
2023-05-15T03:46:21.422Z,63787.61
2023-05-15T03:47:25.006Z,63790.02
2023-05-15T03:48:27.136Z,63791.36
2023-05-15T03:49:29.082Z,63801.13
2023-05-15T03:50:31.335Z,63808.71
2023-05-15T03:51:33.303Z,63818.16
2023-05-15T03:52:35.296Z,63819.71
2023-05-15T03:53:37.679Z,63808.93
2023-05-15T03:54:40.194Z,63821.90
2023-05-15T03:55:42.158Z,63813.11
2023-05-15T03:56:44.258Z,63824.88
2023-05-15T03:57:46.116Z,63838.50
2023-05-15T03:58:47.990Z,63846.08
2023-05-15T03:59:49.860Z,63851.79
2023-05-15T04:00:51.901Z,63862.01
2023-05-15T04:02:04.112Z,63866.52
2023-05-15T04:02:57.702Z,63855.66
2023-05-15T04:03:59.701Z,63868.29
2023-05-15T04:05:06.967Z,63887.18
2023-05-15T04:06:09.363Z,63883.02
2023-05-15T04:07:11.250Z,63889.08
2023-05-15T04:08:13.132Z,63894.01
2023-05-15T04:09:15.119Z,63899.08
2023-05-15T04:10:18.651Z,63907.65
2023-05-15T04:11:20.506Z,63904.57
2023-05-15T04:12:22.387Z,63910.07
2023-05-15T04:13:24.547Z,63928.02
2023-05-15T04:14:28.860Z,63932.98
2023-05-15T04:15:30.734Z,63939.24
2023-05-15T04:16:32.724Z,63951.34
2023-05-15T04:17:34.828Z,63971.48
2023-05-15T04:18:36.912Z,63979.29
2023-05-15T04:19:40.383Z,63989.30
2023-05-15T04:20:43.046Z,64004.48
2023-05-15T04:21:44.901Z,64015.06
2023-05-15T04:22:48.194Z,64033.11
2023-05-15T04:23:50.059Z,64062.41
2023-05-15T04:24:51.913Z,64072.32
2023-05-15T04:25:53.969Z,64082.46
2023-05-15T04:26:56.148Z,64098.32
2023-05-15T04:27:58.636Z,64103.83
2023-05-15T04:29:04.590Z,64122.23
2023-05-15T04:30:06.338Z,64125.86
2023-05-15T04:31:08.238Z,64148.89
2023-05-15T04:32:10.244Z,64160.02
2023-05-15T04:33:13.352Z,64163.87
2023-05-15T04:34:15.490Z,64178.88
2023-05-15T04:35:17.412Z,64206.89
2023-05-15T04:36:19.732Z,64220.01
2023-05-15T04:37:21.914Z,64239.41
2023-05-15T04:38:23.803Z,64257.50
2023-05-15T04:39:26.866Z,64266.98
2023-05-15T04:40:29.158Z,64283.52
2023-05-15T04:41:31.114Z,64302.95
2023-05-15T04:42:33.814Z,64311.78
2023-05-15T04:43:35.661Z,64322.37
2023-05-15T04:44:37.563Z,64332.76
2023-05-15T04:45:39.434Z,64331.65
2023-05-15T04:46:41.743Z,64344.04
2023-05-15T04:47:43.738Z,64329.00
2023-05-15T04:48:45.849Z,64359.79
2023-05-15T04:49:47.845Z,64385.07
2023-05-15T04:50:50.179Z,64409.03
2023-05-15T04:51:52.187Z,64439.66
2023-05-15T04:52:54.163Z,64450.81
2023-05-15T04:53:56.309Z,64455.33
2023-05-15T04:54:58.249Z,64467.48
2023-05-15T04:56:00.252Z,64466.82
2023-05-15T04:57:02.448Z,64467.91
2023-05-15T04:58:04.472Z,64484.49
2023-05-15T04:59:06.351Z,64495.99
2023-05-15T05:00:10.056Z,64489.01
2023-05-15T05:01:12.198Z,64503.28
2023-05-15T05:02:14.242Z,64524.95
2023-05-15T05:03:16.505Z,64531.58
2023-05-15T05:04:18.527Z,64535.36
2023-05-15T05:05:20.394Z,64551.03
2023-05-15T05:06:23.454Z,64569.06
2023-05-15T05:07:25.420Z,64587.97
2023-05-15T05:08:27.392Z,64581.99
2023-05-15T05:09:29.258Z,64616.73
2023-05-15T05:10:31.553Z,64646.15
2023-05-15T05:11:33.533Z,64672.04
2023-05-15T05:12:35.589Z,64689.76
2023-05-15T05:13:37.451Z,64702.04
2023-05-15T05:14:39.582Z,64719.19
2023-05-15T05:15:41.626Z,64678.68
2023-05-15T05:16:44.690Z,64689.84
2023-05-15T05:17:46.687Z,64732.29
2023-05-15T05:18:48.697Z,64739.12
2023-05-15T05:19:50.717Z,64748.52
2023-05-15T05:21:02.036Z,64768.91
2023-05-15T05:22:07.108Z,64774.54
2023-05-15T05:23:09.057Z,64780.07
2023-05-15T05:24:12.038Z,64786.72
2023-05-15T05:25:13.929Z,64811.02
2023-05-15T05:26:16.122Z,64816.64
2023-05-15T05:27:18.326Z,64799.85
2023-05-15T05:28:20.544Z,64806.04
2023-05-15T05:29:22.832Z,64797.26
2023-05-15T05:30:24.845Z,64825.87
2023-05-15T05:31:26.914Z,64854.31
2023-05-15T05:32:28.927Z,64860.96
2023-05-15T05:33:30.884Z,64840.56
2023-05-15T05:34:32.776Z,64775.19
2023-05-15T05:35:34.755Z,64767.24
2023-05-15T05:36:36.945Z,64817.75
2023-05-15T05:37:41.130Z,64795.52
2023-05-15T05:38:43.310Z,64764.38
2023-05-15T05:39:45.296Z,64796.17
2023-05-15T05:40:47.266Z,64820.97
2023-05-15T05:41:49.241Z,64785.52
2023-05-15T05:42:51.254Z,64803.36
2023-05-15T05:43:53.248Z,64871.40
2023-05-15T05:44:55.113Z,64883.51
2023-05-15T05:45:57.017Z,64911.50
2023-05-15T05:46:59.124Z,64901.34
2023-05-15T05:48:01.117Z,64894.68
2023-05-15T05:49:03.517Z,64889.80
2023-05-15T05:50:07.209Z,64875.93
2023-05-15T05:51:09.142Z,64910.85
2023-05-15T05:52:11.121Z,64915.27
2023-05-15T05:53:13.083Z,64911.32
2023-05-15T05:54:14.950Z,64970.18
2023-05-15T05:55:16.916Z,65012.34
2023-05-15T05:56:18.889Z,65019.54
2023-05-15T05:57:20.861Z,65035.15
2023-05-15T05:58:26.093Z,65031.92
2023-05-15T05:59:26.958Z,65073.37
2023-05-15T06:00:29.304Z,65093.34
2023-05-15T06:01:31.828Z,65112.86
2023-05-15T06:02:34.112Z,65101.59
2023-05-15T06:03:37.511Z,65130.08
2023-05-15T06:04:39.786Z,65094.63
2023-05-15T06:05:42.252Z,65112.21
2023-05-15T06:06:44.224Z,65126.11
2023-05-15T06:07:46.065Z,65136.75
2023-05-15T06:08:48.074Z,65136.10
2023-05-15T06:09:49.950Z,65165.05
2023-05-15T06:10:52.016Z,65186.62
2023-05-15T06:11:54.138Z,65195.60
2023-05-15T06:12:55.988Z,65209.58
2023-05-15T06:13:57.875Z,65227.18
2023-05-15T06:14:59.749Z,65241.26
2023-05-15T06:16:01.610Z,65251.07
2023-05-15T06:17:04.414Z,65261.45
2023-05-15T06:18:06.894Z,65262.74
2023-05-15T06:19:09.586Z,65262.84
2023-05-15T06:20:12.323Z,65274.51
2023-05-15T06:21:14.409Z,65220.61
2023-05-15T06:22:17.828Z,65207.20
2023-05-15T06:23:20.080Z,65200.15
2023-05-15T06:24:22.248Z,65226.16
2023-05-15T06:25:24.456Z,65261.17
2023-05-15T06:26:28.022Z,65279.89
2023-05-15T06:27:30.322Z,65282.37
2023-05-15T06:28:32.202Z,65303.32
2023-05-15T06:29:34.051Z,65310.56
2023-05-15T06:30:36.373Z,65308.97
2023-05-15T06:31:38.526Z,65300.08
2023-05-15T06:32:40.963Z,65303.89
2023-05-15T06:33:42.915Z,65297.29
2023-05-15T06:34:44.765Z,65321.20
2023-05-15T06:35:46.935Z,65325.08
2023-05-15T06:36:49.323Z,65327.39
2023-05-15T06:37:51.178Z,65345.12
2023-05-15T06:38:53.030Z,65335.66
2023-05-15T06:39:54.929Z,65339.62
2023-05-15T06:40:56.975Z,65358.55
2023-05-15T06:41:59.251Z,65359.66
2023-05-15T06:43:01.143Z,65367.44
2023-05-15T06:44:04.237Z,65356.33
2023-05-15T06:45:07.065Z,65363.00
2023-05-15T06:46:09.285Z,65372.37
2023-05-15T06:47:11.285Z,65367.44
2023-05-15T06:48:13.450Z,65375.23
2023-05-15T06:49:15.421Z,65395.17
2023-05-15T06:50:17.690Z,65389.04
2023-05-15T06:51:19.865Z,65396.84
2023-05-15T06:52:21.750Z,65400.01
2023-05-15T06:53:23.925Z,65405.25
2023-05-15T06:54:25.807Z,65418.35
2023-05-15T06:55:27.850Z,65408.98
2023-05-15T06:56:30.984Z,65371.73
2023-05-15T06:57:33.356Z,65386.34
2023-05-15T06:58:35.418Z,65398.50
2023-05-15T06:59:37.324Z,65415.20
2023-05-15T07:00:39.274Z,65416.87
2023-05-15T07:01:41.250Z,65405.82
2023-05-15T07:02:43.215Z,65422.45
2023-05-15T07:03:45.221Z,65407.47
2023-05-15T07:04:47.218Z,65401.92
2023-05-15T07:05:49.155Z,65410.65
2023-05-15T07:06:51.220Z,65415.77
2023-05-15T07:07:54.242Z,65403.42
2023-05-15T07:08:56.114Z,65377.76
2023-05-15T07:09:58.133Z,65235.14
2023-05-15T07:11:00.199Z,65262.74
2023-05-15T07:12:02.207Z,65296.74
2023-05-15T07:13:04.144Z,65351.52
2023-05-15T07:14:06.136Z,65377.29
2023-05-15T07:15:10.873Z,65331.75
2023-05-15T07:16:13.044Z,65385.15
2023-05-15T07:17:15.069Z,65341.12
2023-05-15T07:18:17.547Z,65365.22
2023-05-15T07:19:19.699Z,65347.82
2023-05-15T07:20:21.730Z,65357.26
2023-05-15T07:21:23.692Z,65387.46
2023-05-15T07:22:27.380Z,65419.75
2023-05-15T07:23:29.447Z,65433.73
2023-05-15T07:24:31.470Z,65449.78
2023-05-15T07:25:33.790Z,65455.82
2023-05-15T07:26:41.001Z,65458.59
2023-05-15T07:27:39.921Z,65460.26
2023-05-15T07:28:41.958Z,65441.82
2023-05-15T07:29:43.887Z,65450.88
2023-05-15T07:30:46.182Z,65468.13
2023-05-15T07:31:48.136Z,65488.03
2023-05-15T07:32:50.268Z,65486.43
2023-05-15T07:33:52.249Z,65498.12
2023-05-15T07:34:54.268Z,65494.23
2023-05-15T07:35:56.145Z,65508.21
2023-05-15T07:36:58.232Z,65475.84
2023-05-15T07:38:00.214Z,65469.64
2023-05-15T07:39:02.461Z,65493.75
2023-05-15T07:40:05.975Z,65513.22
2023-05-15T07:41:08.027Z,65490.25
2023-05-15T07:42:10.055Z,65494.30
2023-05-15T07:43:11.920Z,65485.22
2023-05-15T07:44:13.840Z,65492.56
2023-05-15T07:45:15.766Z,65490.80
2023-05-15T07:46:19.014Z,65474.10
2023-05-15T07:47:22.020Z,65470.76
2023-05-15T07:48:23.961Z,65481.51
2023-05-15T07:49:25.874Z,65480.21
2023-05-15T07:50:27.941Z,65485.40
2023-05-15T07:51:29.914Z,65489.77
2023-05-15T07:52:31.821Z,65497.00
2023-05-15T07:53:33.806Z,65508.78
2023-05-15T07:54:35.730Z,65505.44
2023-05-15T07:55:37.879Z,65500.34
2023-05-15T07:56:40.995Z,65496.38
2023-05-15T07:57:43.154Z,65469.64
2023-05-15T07:58:45.190Z,65440.31
2023-05-15T07:59:47.383Z,65476.41
2023-05-15T08:00:49.474Z,65489.22
2023-05-15T08:01:51.376Z,65489.86
2023-05-15T08:02:53.322Z,65460.35
2023-05-15T08:03:55.408Z,65487.64
2023-05-15T08:04:57.547Z,65489.31
2023-05-15T08:05:59.502Z,65505.99
2023-05-15T08:07:01.734Z,65499.88
2023-05-15T08:08:03.795Z,65503.04
2023-05-15T08:09:05.662Z,65490.80
2023-05-15T08:10:09.086Z,65493.59
2023-05-15T08:11:10.988Z,65477.44
2023-05-15T08:12:18.750Z,65424.28
2023-05-15T08:13:20.637Z,65401.66
2023-05-15T08:14:22.568Z,65336.21
2023-05-15T08:15:24.836Z,65394.52
2023-05-15T08:16:29.580Z,65447.38
2023-05-15T08:17:31.643Z,65466.39
2023-05-15T08:18:33.626Z,65476.96
2023-05-15T08:19:36.189Z,65473.53
2023-05-15T08:20:38.528Z,65459.23
2023-05-15T08:21:40.500Z,65467.49
2023-05-15T08:22:42.476Z,65464.07
2023-05-15T08:23:44.397Z,65482.63
2023-05-15T08:24:46.557Z,65495.33
2023-05-15T08:25:48.435Z,65485.88
2023-05-15T08:26:50.982Z,65443.65
2023-05-15T08:27:52.837Z,65471.86
2023-05-15T08:28:54.848Z,65482.52
2023-05-15T08:29:56.679Z,65472.43
2023-05-15T08:30:59.017Z,65467.58
2023-05-15T08:32:01.813Z,65474.26
2023-05-15T08:33:03.735Z,65467.03
2023-05-15T08:34:05.901Z,65468.54
2023-05-15T08:35:09.278Z,65475.38
2023-05-15T08:36:11.808Z,65435.30
2023-05-15T08:37:13.870Z,65393.41
2023-05-15T08:38:15.827Z,65420.85
2023-05-15T08:39:18.123Z,65440.24
2023-05-15T08:40:25.711Z,65453.03
2023-05-15T08:42:51.592Z,65428.64
2023-05-15T08:43:56.351Z,65440.31
2023-05-15T08:44:59.740Z,65446.28
2023-05-15T08:46:02.674Z,65439.76
2023-05-15T08:47:05.560Z,65437.54
2023-05-15T08:48:18.664Z,65435.78
2023-05-15T08:49:30.357Z,65422.45
2023-05-15T08:50:33.326Z,65427.05
2023-05-15T08:51:35.290Z,65450.72
2023-05-15T08:52:38.414Z,65459.62
2023-05-15T08:53:40.555Z,65431.80
2023-05-15T08:54:42.418Z,65451.45
2023-05-15T08:55:44.462Z,65477.25
2023-05-15T08:56:47.543Z,65475.20
2023-05-15T08:57:50.388Z,65456.28
2023-05-15T08:58:52.799Z,65456.28
2023-05-15T08:59:56.317Z,65446.28
2023-05-15T09:00:58.790Z,65439.60
2023-05-15T09:02:01.620Z,65435.78
2023-05-15T09:03:04.628Z,65439.76
2023-05-15T09:04:06.755Z,65429.67
2023-05-15T09:05:10.044Z,65423.07
2023-05-15T09:06:13.651Z,65384.61
2023-05-15T09:07:16.178Z,65382.46
2023-05-15T09:08:20.696Z,65379.34
2023-05-15T09:09:24.112Z,65407.88
2023-05-15T09:10:26.438Z,65409.14
2023-05-15T09:11:30.850Z,65427.36
2023-05-15T09:12:35.674Z,65408.04
2023-05-15T09:13:37.605Z,65406.93
2023-05-15T09:14:39.694Z,65413.07
2023-05-15T09:15:42.084Z,65409.71
2023-05-15T09:16:44.563Z,65421.32
2023-05-15T09:17:48.628Z,65441.43
2023-05-15T09:18:52.016Z,65437.16
2023-05-15T09:19:54.075Z,65423.55
2023-05-15T09:20:57.990Z,65410.65
2023-05-15T09:22:20.176Z,65397.39
2023-05-15T09:23:25.195Z,65369.04
2023-05-15T09:24:27.238Z,65349.48
2023-05-15T09:25:34.752Z,65341.67
2023-05-15T09:26:36.836Z,65321.20
2023-05-15T09:27:45.145Z,65292.31
2023-05-15T09:28:49.379Z,65265.61
2023-05-15T09:29:51.434Z,65270.05
2023-05-15T09:32:13.260Z,65337.88
2023-05-15T09:33:16.789Z,65361.24
2023-05-15T09:34:18.796Z,65339.62
2023-05-15T09:35:36.066Z,65339.62
2023-05-15T09:36:43.099Z,65358.38
2023-05-15T09:37:45.128Z,65397.77
2023-05-15T09:38:46.970Z,65396.36
2023-05-15T09:39:48.819Z,65430.22
2023-05-15T09:41:03.261Z,65449.78
2023-05-15T09:42:06.573Z,65446.92
2023-05-15T09:43:11.474Z,65415.77
2023-05-15T09:44:22.111Z,65376.90
2023-05-15T09:45:25.591Z,65424.66
2023-05-15T09:46:28.614Z,65417.44
2023-05-15T09:47:31.044Z,65434.20
2023-05-15T09:48:34.698Z,65437.38
2023-05-15T09:49:38.866Z,65430.87
2023-05-15T09:50:41.051Z,65449.23
2023-05-15T09:51:43.585Z,65466.46
2023-05-15T09:52:45.705Z,65451.93
2023-05-15T09:53:49.795Z,65446.44
2023-05-15T09:54:51.797Z,65439.76
2023-05-15T09:55:53.976Z,65432.54
2023-05-15T09:56:56.382Z,65440.70
2023-05-15T09:58:06.759Z,65434.75
2023-05-15T09:59:14.696Z,65459.71
2023-05-15T10:00:19.074Z,65439.60
2023-05-15T10:01:22.757Z,65403.13
2023-05-15T10:02:28.702Z,65397.86
2023-05-15T10:03:30.971Z,65403.59
2023-05-15T10:04:35.975Z,65398.96
2023-05-15T10:05:43.522Z,65389.68
2023-05-15T10:06:46.561Z,65420.14
2023-05-15T10:07:52.189Z,65410.81
2023-05-15T10:08:54.710Z,65435.23
2023-05-15T10:09:57.203Z,65439.67
2023-05-15T10:11:00.955Z,65452.48
2023-05-15T10:12:04.936Z,65441.27
2023-05-15T10:13:08.601Z,65441.27
2023-05-15T10:14:13.318Z,65438.48
2023-05-15T10:15:19.693Z,65437.54
2023-05-15T10:16:23.165Z,65386.82
2023-05-15T10:17:30.695Z,65448.02
2023-05-15T10:18:35.327Z,65448.02
2023-05-15T10:19:50.458Z,65453.51
2023-05-15T10:20:42.509Z,65456.46
2023-05-15T10:21:45.277Z,65451.84
2023-05-15T10:24:00.749Z,65465.36
2023-05-15T10:25:23.258Z,65473.62
2023-05-15T10:27:46.909Z,65400.82
2023-05-15T10:28:49.560Z,65382.84
2023-05-15T10:29:51.774Z,65383.58
2023-05-15T10:30:56.491Z,65387.30
2023-05-15T10:32:00.813Z,65386.82
2023-05-15T10:33:07.242Z,65391.28
2023-05-15T10:34:11.239Z,65322.79
2023-05-15T10:35:14.433Z,65384.51
2023-05-15T10:36:18.647Z,65385.70
2023-05-15T10:37:21.740Z,65404.61
2023-05-15T10:38:25.139Z,65395.24
2023-05-15T10:39:28.440Z,65381.43
2023-05-15T10:40:32.339Z,65395.07
2023-05-15T10:41:39.243Z,65385.25
2023-05-15T10:42:44.109Z,65362.36
2023-05-15T10:43:49.036Z,65355.21
2023-05-15T10:44:52.932Z,65377.93
2023-05-15T10:45:56.201Z,65305.08
2023-05-15T10:46:59.239Z,65318.98
2023-05-15T10:48:02.297Z,65341.21
2023-05-15T10:49:04.880Z,65342.31
2023-05-15T10:50:08.794Z,65354.02
2023-05-15T10:51:28.470Z,65347.98
2023-05-15T10:52:35.229Z,65373.02
2023-05-15T10:53:37.241Z,65380.63
2023-05-15T10:54:39.247Z,65381.91
2023-05-15T10:55:41.411Z,65391.74
2023-05-15T10:56:44.309Z,65391.92
2023-05-15T10:57:46.477Z,65397.94
2023-05-15T10:58:49.556Z,65396.84
2023-05-15T10:59:51.645Z,65380.63
2023-05-15T11:00:53.900Z,65372.76
2023-05-15T11:01:57.696Z,65372.76
2023-05-15T11:02:59.701Z,65385.15
2023-05-15T11:04:07.414Z,65396.58
2023-05-15T11:05:09.616Z,65385.06
2023-05-15T11:06:12.388Z,65373.02
2023-05-15T11:07:17.179Z,65394.62
2023-05-15T11:08:23.863Z,65378.48
2023-05-15T11:09:36.634Z,65382.36
2023-05-15T11:10:39.069Z,65360.78
2023-05-15T11:11:58.260Z,65380.71
2023-05-15T11:13:01.980Z,65367.91
2023-05-15T11:14:07.648Z,65336.29
2023-05-15T11:15:13.287Z,65333.99
2023-05-15T11:16:35.946Z,65322.79
2023-05-15T11:17:38.147Z,65317.86
2023-05-15T11:18:40.129Z,65310.25
2023-05-15T11:19:51.813Z,65313.42
2023-05-15T11:21:00.772Z,65315.55
2023-05-15T11:22:17.638Z,65322.22
2023-05-15T11:23:24.527Z,65326.84
2023-05-15T11:24:32.158Z,65336.29
2023-05-15T11:25:36.051Z,65315.00
2023-05-15T11:26:42.781Z,65332.78
2023-05-15T11:27:45.761Z,65336.12
2023-05-15T11:28:47.606Z,65340.57
2023-05-15T11:30:16.523Z,65347.82
2023-05-15T11:31:22.299Z,65344.10
2023-05-15T11:32:31.968Z,65341.67
2023-05-15T11:33:34.056Z,65333.25
2023-05-15T11:34:39.756Z,65303.89
2023-05-15T11:35:44.587Z,65303.89
2023-05-15T11:36:47.074Z,65277.39
2023-05-15T11:37:53.132Z,65279.99
2023-05-15T11:38:55.626Z,65267.20
2023-05-15T11:39:57.603Z,65258.29
2023-05-15T11:40:59.996Z,65254.41
2023-05-15T11:42:11.410Z,65241.71
2023-05-15T11:43:22.529Z,65243.00
2023-05-15T11:44:24.340Z,65261.62
2023-05-15T11:45:29.008Z,65272.18
2023-05-15T11:46:32.559Z,65275.63
2023-05-15T11:47:34.847Z,65296.74
2023-05-15T11:48:43.018Z,65312.86
2023-05-15T11:49:45.180Z,65327.39
2023-05-15T11:50:47.153Z,65330.73
2023-05-15T11:51:50.460Z,65339.45
2023-05-15T11:52:52.789Z,65314.52
2023-05-15T11:53:56.463Z,65306.11
2023-05-15T11:54:59.506Z,65310.73
2023-05-15T11:56:01.395Z,65316.29
2023-05-15T11:57:06.941Z,65323.43
2023-05-15T11:58:17.129Z,65337.88
2023-05-15T11:59:20.645Z,65345.12
2023-05-15T12:00:23.473Z,65336.69
2023-05-15T12:01:25.958Z,65345.22
2023-05-15T12:02:27.941Z,65357.26
2023-05-15T12:03:33.954Z,65350.13
2023-05-15T12:04:36.600Z,65358.55
2023-05-15T12:05:47.264Z,65344.46
2023-05-15T12:06:45.124Z,65346.13
2023-05-15T12:07:47.532Z,65338.52
2023-05-15T12:08:53.358Z,65338.36
2023-05-15T12:09:56.118Z,65332.32
2023-05-15T12:10:59.378Z,65341.88
2023-05-15T12:12:01.341Z,65340.57
2023-05-15T12:13:03.216Z,65351.15
2023-05-15T12:14:05.079Z,65362.84
2023-05-15T12:15:15.590Z,65371.25
2023-05-15T12:16:17.796Z,65370.70
2023-05-15T12:17:20.139Z,65363.00
2023-05-15T12:18:22.668Z,65379.67
2023-05-15T12:20:39.715Z,65381.91
2023-05-15T12:21:46.170Z,65362.36
2023-05-15T12:22:48.101Z,65385.06
2023-05-15T12:24:03.502Z,65371.73
2023-05-15T12:24:58.920Z,65360.14
2023-05-15T12:26:02.320Z,65356.80
2023-05-15T12:27:04.663Z,65352.35
2023-05-15T12:28:06.794Z,65363.38
2023-05-15T12:29:09.058Z,65351.87
2023-05-15T12:30:13.879Z,65354.11
2023-05-15T12:31:18.459Z,65359.50
2023-05-15T12:32:21.078Z,65376.16
2023-05-15T12:33:24.139Z,65372.37
2023-05-15T12:34:26.601Z,65376.74
2023-05-15T12:35:29.411Z,65376.16
2023-05-15T12:36:31.719Z,65390.00
2023-05-15T12:37:35.659Z,65379.50